sensor_id;sensor_type;location;lat;lon;timestamp;P1;durP1;ratioP1;P2;durP2;ratioP2
22673;SDS011;11504;43.334;21.918;2024-01-15T00:00:09;126.0;;;105.0;;
22673;SDS011;11504;43.334;21.918;2024-01-15T00:04:47;126.0;;;105.0;;
22673;SDS011;11504;43.334;21.918;2024-01-15T00:09:23;126.0;;;105.0;;
22673;SDS011;11504;43.334;21.918;2024-01-15T00:13:59;112.0;;;95.0;;
22673;SDS011;11504;43.334;21.918;2024-01-15T00:18:35;112.0;;;95.0;;
22673;SDS011;11504;43.334;21.918;2024-01-15T00:23:11;98.0;;;85.0;;
22673;SDS011;11504;43.334;21.918;2024-01-15T00:27:48;98.0;;;85.0;;
22673;SDS011;11504;43.334;21.918;2024-01-15T00:32:24;98.0;;;85.0;;
22673;SDS011;11504;43.334;21.918;2024-01-15T00:37:00;98.0;;;85.0;;
22673;SDS011;11504;43.334;21.918;2024-01-15T00:50:48;53.0;;;43.0;;
22673;SDS011;11504;43.334;21.918;2024-01-15T00:55:24;53.0;;;43.0;;
22673;SDS011;11504;43.334;21.918;2024-01-15T01:00:00;53.0;;;43.0;;
22673;SDS011;11504;43.334;21.918;2024-01-15T01:04:36;53.0;;;43.0;;
22673;SDS011;11504;43.334;21.918;2024-01-15T01:09:12;53.0;;;43.0;;
22673;SDS011;11504;43.334;21.918;2024-01-15T01:13:48;50.0;;;42.0;;
22673;SDS011;11504;43.334;21.918;2024-01-15T01:18:24;50.0;;;42.0;;
22673;SDS011;11504;43.334;21.918;2024-01-15T01:23:01;47.0;;;40.0;;
22673;SDS011;11504;43.334;21.918;2024-01-15T01:27:37;47.0;;;40.0;;
22673;SDS011;11504;43.334;21.918;2024-01-15T01:32:14;44.0;;;38.0;;
22673;SDS011;11504;43.334;21.918;2024-01-15T01:36:50;44.0;;;38.0;;
22673;SDS011;11504;43.334;21.918;2024-01-15T01:41:26;41.0;;;35.0;;
22673;SDS011;11504;43.334;21.918;2024-01-15T01:46:03;41.0;;;35.0;;
22673;SDS011;11504;43.334;21.918;2024-01-15T01:50:42;41.0;;;35.0;;
22673;SDS011;11504;43.334;21.918;2024-01-15T01:55:20;41.0;;;35.0;;
22673;SDS011;11504;43.334;21.918;2024-01-15T02:00:08;41.0;;;35.0;;
22673;SDS011;11504;43.334;21.918;2024-01-15T02:04:49;41.0;;;35.0;;
22673;SDS011;11504;43.334;21.918;2024-01-15T02:09:26;41.0;;;35.0;;
22673;SDS011;11504;43.334;21.918;2024-01-15T02:14:02;43.0;;;36.0;;
22673;SDS011;11504;43.334;21.918;2024-01-15T02:18:40;43.0;;;36.0;;
22673;SDS011;11504;43.334;21.918;2024-01-15T02:23:19;45.0;;;38.0;;
22673;SDS011;11504;43.334;21.918;2024-01-15T02:27:55;45.0;;;38.0;;
22673;SDS011;11504;43.334;21.918;2024-01-15T02:32:32;46.0;;;38.0;;
22673;SDS011;11504;43.334;21.918;2024-01-15T02:37:08;46.0;;;38.0;;
22673;SDS011;11504;43.334;21.918;2024-01-15T02:41:44;47.0;;;38.0;;
22673;SDS011;11504;43.334;21.918;2024-01-15T02:46:20;47.0;;;38.0;;
22673;SDS011;11504;43.334;21.918;2024-01-15T02:50:56;46.0;;;38.0;;
22673;SDS011;11504;43.334;21.918;2024-01-15T02:55:32;46.0;;;38.0;;
22673;SDS011;11504;43.334;21.918;2024-01-15T03:00:09;46.0;;;38.0;;
22673;SDS011;11504;43.334;21.918;2024-01-15T03:04:49;46.0;;;39.0;;
22673;SDS011;11504;43.334;21.918;2024-01-15T03:09:26;46.0;;;39.0;;
22673;SDS011;11504;43.334;21.918;2024-01-15T03:14:02;48.0;;;40.0;;
22673;SDS011;11504;43.334;21.918;2024-01-15T03:18:39;48.0;;;40.0;;
22673;SDS011;11504;43.334;21.918;2024-01-15T03:23:15;49.0;;;41.0;;
22673;SDS011;11504;43.334;21.918;2024-01-15T03:27:51;49.0;;;41.0;;
22673;SDS011;11504;43.334;21.918;2024-01-15T03:32:28;46.0;;;39.0;;
22673;SDS011;11504;43.334;21.918;2024-01-15T03:37:05;46.0;;;39.0;;
22673;SDS011;11504;43.334;21.918;2024-01-15T03:41:41;43.0;;;37.0;;
22673;SDS011;11504;43.334;21.918;2024-01-15T03:46:17;43.0;;;37.0;;
22673;SDS011;11504;43.334;21.918;2024-01-15T03:50:54;34.0;;;30.0;;
22673;SDS011;11504;43.334;21.918;2024-01-15T03:55:30;34.0;;;30.0;;
22673;SDS011;11504;43.334;21.918;2024-01-15T04:00:08;34.0;;;30.0;;
22673;SDS011;11504;43.334;21.918;2024-01-15T04:04:51;26.0;;;23.0;;
22673;SDS011;11504;43.334;21.918;2024-01-15T04:09:28;26.0;;;23.0;;
22673;SDS011;11504;43.334;21.918;2024-01-15T04:14:04;23.0;;;20.0;;
22673;SDS011;11504;43.334;21.918;2024-01-15T04:18:41;23.0;;;20.0;;
22673;SDS011;11504;43.334;21.918;2024-01-15T04:23:17;20.0;;;17.0;;
22673;SDS011;11504;43.334;21.918;2024-01-15T04:27:54;20.0;;;17.0;;
22673;SDS011;11504;43.334;21.918;2024-01-15T04:32:30;18.0;;;16.0;;
22673;SDS011;11504;43.334;21.918;2024-01-15T04:37:06;18.0;;;16.0;;
22673;SDS011;11504;43.334;21.918;2024-01-15T04:41:43;16.0;;;14.0;;
22673;SDS011;11504;43.334;21.918;2024-01-15T04:46:19;16.0;;;14.0;;
22673;SDS011;11504;43.334;21.918;2024-01-15T04:50:56;32.0;;;24.0;;
22673;SDS011;11504;43.334;21.918;2024-01-15T04:55:32;32.0;;;24.0;;
22673;SDS011;11504;43.334;21.918;2024-01-15T05:00:08;32.0;;;24.0;;
22673;SDS011;11504;43.334;21.918;2024-01-15T05:04:48;47.0;;;33.0;;
22673;SDS011;11504;43.334;21.918;2024-01-15T05:09:24;47.0;;;33.0;;
22673;SDS011;11504;43.334;21.918;2024-01-15T05:14:00;41.0;;;32.0;;
22673;SDS011;11504;43.334;21.918;2024-01-15T05:18:36;41.0;;;32.0;;
22673;SDS011;11504;43.334;21.918;2024-01-15T05:23:12;35.0;;;30.0;;
22673;SDS011;11504;43.334;21.918;2024-01-15T05:27:48;35.0;;;30.0;;
22673;SDS011;11504;43.334;21.918;2024-01-15T05:32:25;35.0;;;30.0;;
22673;SDS011;11504;43.334;21.918;2024-01-15T05:37:01;35.0;;;30.0;;
22673;SDS011;11504;43.334;21.918;2024-01-15T05:41:38;35.0;;;29.0;;
22673;SDS011;11504;43.334;21.918;2024-01-15T05:46:14;35.0;;;29.0;;
22673;SDS011;11504;43.334;21.918;2024-01-15T05:50:51;45.0;;;37.0;;
22673;SDS011;11504;43.334;21.918;2024-01-15T05:55:29;45.0;;;37.0;;
22673;SDS011;11504;43.334;21.918;2024-01-15T06:00:06;45.0;;;37.0;;
22673;SDS011;11504;43.334;21.918;2024-01-15T06:04:46;55.0;;;45.0;;
22673;SDS011;11504;43.334;21.918;2024-01-15T06:09:23;55.0;;;45.0;;
22673;SDS011;11504;43.334;21.918;2024-01-15T06:13:59;44.0;;;36.0;;
22673;SDS011;11504;43.334;21.918;2024-01-15T06:18:36;44.0;;;36.0;;
22673;SDS011;11504;43.334;21.918;2024-01-15T06:23:12;34.0;;;27.0;;
22673;SDS011;11504;43.334;21.918;2024-01-15T06:27:48;34.0;;;27.0;;
22673;SDS011;11504;43.334;21.918;2024-01-15T06:32:25;32.0;;;27.0;;
22673;SDS011;11504;43.334;21.918;2024-01-15T06:37:01;32.0;;;27.0;;
22673;SDS011;11504;43.334;21.918;2024-01-15T06:41:38;31.0;;;27.0;;
22673;SDS011;11504;43.334;21.918;2024-01-15T06:46:19;31.0;;;27.0;;
22673;SDS011;11504;43.334;21.918;2024-01-15T06:50:58;34.0;;;30.0;;
22673;SDS011;11504;43.334;21.918;2024-01-15T06:55:36;34.0;;;30.0;;
22673;SDS011;11504;43.334;21.918;2024-01-15T07:00:15;34.0;;;30.0;;
22673;SDS011;11504;43.334;21.918;2024-01-15T07:04:54;38.0;;;33.0;;
22673;SDS011;11504;43.334;21.918;2024-01-15T07:09:30;38.0;;;33.0;;
22673;SDS011;11504;43.334;21.918;2024-01-15T07:14:06;42.0;;;36.0;;
22673;SDS011;11504;43.334;21.918;2024-01-15T07:18:42;42.0;;;36.0;;
22673;SDS011;11504;43.334;21.918;2024-01-15T07:23:19;45.0;;;40.0;;
22673;SDS011;11504;43.334;21.918;2024-01-15T07:27:55;45.0;;;40.0;;
22673;SDS011;11504;43.334;21.918;2024-01-15T07:32:31;35.0;;;31.0;;
22673;SDS011;11504;43.334;21.918;2024-01-15T07:37:08;35.0;;;31.0;;
22673;SDS011;11504;43.334;21.918;2024-01-15T07:41:45;25.0;;;22.0;;
22673;SDS011;11504;43.334;21.918;2024-01-15T07:46:21;25.0;;;22.0;;
22673;SDS011;11504;43.334;21.918;2024-01-15T07:50:57;42.0;;;38.0;;
22673;SDS011;11504;43.334;21.918;2024-01-15T07:55:33;42.0;;;38.0;;
22673;SDS011;11504;43.334;21.918;2024-01-15T08:00:09;42.0;;;38.0;;
22673;SDS011;11504;43.334;21.918;2024-01-15T08:04:48;59.0;;;54.0;;
22673;SDS011;11504;43.334;21.918;2024-01-15T08:09:24;59.0;;;54.0;;
22673;SDS011;11504;43.334;21.918;2024-01-15T08:14:00;114.0;;;102.0;;
22673;SDS011;11504;43.334;21.918;2024-01-15T08:18:37;114.0;;;102.0;;
22673;SDS011;11504;43.334;21.918;2024-01-15T08:23:13;168.0;;;151.0;;
22673;SDS011;11504;43.334;21.918;2024-01-15T08:27:50;168.0;;;151.0;;
22673;SDS011;11504;43.334;21.918;2024-01-15T08:32:27;146.0;;;130.0;;
22673;SDS011;11504;43.334;21.918;2024-01-15T08:37:03;146.0;;;130.0;;
22673;SDS011;11504;43.334;21.918;2024-01-15T08:41:40;123.0;;;108.0;;
22673;SDS011;11504;43.334;21.918;2024-01-15T08:46:16;123.0;;;108.0;;
22673;SDS011;11504;43.334;21.918;2024-01-15T08:50:52;100.0;;;88.0;;
22673;SDS011;11504;43.334;21.918;2024-01-15T08:55:31;100.0;;;88.0;;
22673;SDS011;11504;43.334;21.918;2024-01-15T09:00:09;100.0;;;88.0;;
22673;SDS011;11504;43.334;21.918;2024-01-15T09:04:50;76.0;;;68.0;;
22673;SDS011;11504;43.334;21.918;2024-01-15T09:09:26;76.0;;;68.0;;
22673;SDS011;11504;43.334;21.918;2024-01-15T09:14:02;66.0;;;58.0;;
22673;SDS011;11504;43.334;21.918;2024-01-15T09:18:39;66.0;;;58.0;;
22673;SDS011;11504;43.334;21.918;2024-01-15T09:23:15;56.0;;;49.0;;
22673;SDS011;11504;43.334;21.918;2024-01-15T09:27:51;56.0;;;49.0;;
22673;SDS011;11504;43.334;21.918;2024-01-15T09:32:28;103.0;;;88.0;;
22673;SDS011;11504;43.334;21.918;2024-01-15T09:37:04;103.0;;;88.0;;
22673;SDS011;11504;43.334;21.918;2024-01-15T09:41:41;150.0;;;128.0;;
22673;SDS011;11504;43.334;21.918;2024-01-15T09:46:19;150.0;;;128.0;;
22673;SDS011;11504;43.334;21.918;2024-01-15T09:50:57;171.0;;;148.0;;
22673;SDS011;11504;43.334;21.918;2024-01-15T09:55:34;171.0;;;148.0;;
22673;SDS011;11504;43.334;21.918;2024-01-15T10:00:12;171.0;;;148.0;;
22673;SDS011;11504;43.334;21.918;2024-01-15T10:04:54;192.0;;;169.0;;
22673;SDS011;11504;43.334;21.918;2024-01-15T10:09:30;192.0;;;169.0;;
22673;SDS011;11504;43.334;21.918;2024-01-15T10:14:06;170.0;;;150.0;;
22673;SDS011;11504;43.334;21.918;2024-01-15T10:18:45;170.0;;;150.0;;
22673;SDS011;11504;43.334;21.918;2024-01-15T10:23:21;148.0;;;131.0;;
22673;SDS011;11504;43.334;21.918;2024-01-15T10:27:59;148.0;;;131.0;;
22673;SDS011;11504;43.334;21.918;2024-01-15T10:32:40;179.0;;;158.0;;
22673;SDS011;11504;43.334;21.918;2024-01-15T10:37:16;179.0;;;158.0;;
22673;SDS011;11504;43.334;21.918;2024-01-15T10:41:52;210.0;;;185.0;;
22673;SDS011;11504;43.334;21.918;2024-01-15T10:46:28;210.0;;;185.0;;
22673;SDS011;11504;43.334;21.918;2024-01-15T10:51:10;250.0;;;220.0;;
22673;SDS011;11504;43.334;21.918;2024-01-15T10:55:48;250.0;;;220.0;;
22673;SDS011;11504;43.334;21.918;2024-01-15T11:00:28;250.0;;;220.0;;
22673;SDS011;11504;43.334;21.918;2024-01-15T11:05:05;291.0;;;256.0;;
22673;SDS011;11504;43.334;21.918;2024-01-15T11:09:42;291.0;;;256.0;;
22673;SDS011;11504;43.334;21.918;2024-01-15T11:14:38;264.0;;;234.0;;
22673;SDS011;11504;43.334;21.918;2024-01-15T11:19:23;264.0;;;234.0;;
22673;SDS011;11504;43.334;21.918;2024-01-15T11:24:01;237.0;;;211.0;;
22673;SDS011;11504;43.334;21.918;2024-01-15T11:28:54;237.0;;;211.0;;
22673;SDS011;11504;43.334;21.918;2024-01-15T11:33:36;194.0;;;168.0;;
22673;SDS011;11504;43.334;21.918;2024-01-15T11:38:26;194.0;;;168.0;;
22673;SDS011;11504;43.334;21.918;2024-01-15T11:43:03;151.0;;;125.0;;
22673;SDS011;11504;43.334;21.918;2024-01-15T11:48:13;151.0;;;125.0;;
22673;SDS011;11504;43.334;21.918;2024-01-15T11:52:55;150.0;;;124.0;;
22673;SDS011;11504;43.334;21.918;2024-01-15T11:57:52;150.0;;;124.0;;
22673;SDS011;11504;43.334;21.918;2024-01-15T12:02:32;149.0;;;124.0;;
22673;SDS011;11504;43.334;21.918;2024-01-15T12:07:10;149.0;;;124.0;;
22673;SDS011;11504;43.334;21.918;2024-01-15T12:11:48;103.0;;;88.0;;
22673;SDS011;11504;43.334;21.918;2024-01-15T12:16:59;103.0;;;88.0;;
22673;SDS011;11504;43.334;21.918;2024-01-15T12:21:38;57.0;;;51.0;;
22673;SDS011;11504;43.334;21.918;2024-01-15T12:26:15;57.0;;;51.0;;
22673;SDS011;11504;43.334;21.918;2024-01-15T12:30:52;57.0;;;51.0;;
22673;SDS011;11504;43.334;21.918;2024-01-15T12:35:31;55.0;;;49.0;;
22673;SDS011;11504;43.334;21.918;2024-01-15T12:40:11;55.0;;;49.0;;
22673;SDS011;11504;43.334;21.918;2024-01-15T12:44:58;53.0;;;47.0;;
22673;SDS011;11504;43.334;21.918;2024-01-15T12:49:37;53.0;;;47.0;;
22673;SDS011;11504;43.334;21.918;2024-01-15T12:54:14;48.0;;;42.0;;
22673;SDS011;11504;43.334;21.918;2024-01-15T12:58:50;48.0;;;42.0;;
22673;SDS011;11504;43.334;21.918;2024-01-15T13:03:27;42.0;;;37.0;;
22673;SDS011;11504;43.334;21.918;2024-01-15T13:08:04;42.0;;;37.0;;
22673;SDS011;11504;43.334;21.918;2024-01-15T13:12:41;37.0;;;33.0;;
22673;SDS011;11504;43.334;21.918;2024-01-15T13:17:17;37.0;;;33.0;;
22673;SDS011;11504;43.334;21.918;2024-01-15T13:21:53;32.0;;;29.0;;
22673;SDS011;11504;43.334;21.918;2024-01-15T13:26:29;32.0;;;29.0;;
22673;SDS011;11504;43.334;21.918;2024-01-15T13:31:06;33.0;;;28.0;;
22673;SDS011;11504;43.334;21.918;2024-01-15T13:35:43;33.0;;;28.0;;
22673;SDS011;11504;43.334;21.918;2024-01-15T13:40:19;33.0;;;28.0;;
22673;SDS011;11504;43.334;21.918;2024-01-15T13:44:55;34.0;;;27.0;;
22673;SDS011;11504;43.334;21.918;2024-01-15T13:49:31;34.0;;;27.0;;
22673;SDS011;11504;43.334;21.918;2024-01-15T13:54:08;52.0;;;40.0;;
22673;SDS011;11504;43.334;21.918;2024-01-15T13:58:44;52.0;;;40.0;;
22673;SDS011;11504;43.334;21.918;2024-01-15T14:03:20;69.0;;;52.0;;
22673;SDS011;11504;43.334;21.918;2024-01-15T14:07:57;69.0;;;52.0;;
22673;SDS011;11504;43.334;21.918;2024-01-15T14:12:33;68.0;;;56.0;;
22673;SDS011;11504;43.334;21.918;2024-01-15T14:17:10;68.0;;;56.0;;
22673;SDS011;11504;43.334;21.918;2024-01-15T14:21:46;68.0;;;60.0;;
22673;SDS011;11504;43.334;21.918;2024-01-15T14:26:22;68.0;;;60.0;;
22673;SDS011;11504;43.334;21.918;2024-01-15T14:30:58;68.0;;;60.0;;
22673;SDS011;11504;43.334;21.918;2024-01-15T14:35:35;66.0;;;58.0;;
22673;SDS011;11504;43.334;21.918;2024-01-15T14:40:11;66.0;;;58.0;;
22673;SDS011;11504;43.334;21.918;2024-01-15T14:44:48;63.0;;;55.0;;
22673;SDS011;11504;43.334;21.918;2024-01-15T14:49:24;63.0;;;55.0;;
22673;SDS011;11504;43.334;21.918;2024-01-15T14:54:00;42.0;;;36.0;;
22673;SDS011;11504;43.334;21.918;2024-01-15T14:58:37;42.0;;;36.0;;
22673;SDS011;11504;43.334;21.918;2024-01-15T15:03:13;20.0;;;16.0;;
22673;SDS011;11504;43.334;21.918;2024-01-15T15:07:50;20.0;;;16.0;;
22673;SDS011;11504;43.334;21.918;2024-01-15T15:12:27;18.0;;;16.0;;
22673;SDS011;11504;43.334;21.918;2024-01-15T15:17:04;18.0;;;16.0;;
22673;SDS011;11504;43.334;21.918;2024-01-15T15:21:40;16.0;;;15.0;;
22673;SDS011;11504;43.334;21.918;2024-01-15T15:26:17;16.0;;;15.0;;
22673;SDS011;11504;43.334;21.918;2024-01-15T15:30:53;16.0;;;15.0;;
22673;SDS011;11504;43.334;21.918;2024-01-15T15:35:30;16.0;;;15.0;;
22673;SDS011;11504;43.334;21.918;2024-01-15T15:40:08;16.0;;;15.0;;
22673;SDS011;11504;43.334;21.918;2024-01-15T15:44:46;16.0;;;15.0;;
22673;SDS011;11504;43.334;21.918;2024-01-15T15:49:22;16.0;;;15.0;;
22673;SDS011;11504;43.334;21.918;2024-01-15T15:53:58;16.0;;;15.0;;
22673;SDS011;11504;43.334;21.918;2024-01-15T15:58:34;16.0;;;15.0;;
22673;SDS011;11504;43.334;21.918;2024-01-15T16:03:10;17.0;;;15.0;;
22673;SDS011;11504;43.334;21.918;2024-01-15T16:07:46;17.0;;;15.0;;
22673;SDS011;11504;43.334;21.918;2024-01-15T16:12:24;36.0;;;32.0;;
22673;SDS011;11504;43.334;21.918;2024-01-15T16:17:00;36.0;;;32.0;;
22673;SDS011;11504;43.334;21.918;2024-01-15T16:21:37;56.0;;;50.0;;
22673;SDS011;11504;43.334;21.918;2024-01-15T16:26:14;56.0;;;50.0;;
22673;SDS011;11504;43.334;21.918;2024-01-15T16:30:51;56.0;;;50.0;;
22673;SDS011;11504;43.334;21.918;2024-01-15T16:35:27;54.0;;;48.0;;
22673;SDS011;11504;43.334;21.918;2024-01-15T16:40:04;54.0;;;48.0;;
22673;SDS011;11504;43.334;21.918;2024-01-15T16:44:45;51.0;;;46.0;;
22673;SDS011;11504;43.334;21.918;2024-01-15T16:49:22;51.0;;;46.0;;
22673;SDS011;11504;43.334;21.918;2024-01-15T16:53:58;70.0;;;62.0;;
22673;SDS011;11504;43.334;21.918;2024-01-15T16:58:34;70.0;;;62.0;;
22673;SDS011;11504;43.334;21.918;2024-01-15T17:03:11;90.0;;;78.0;;
22673;SDS011;11504;43.334;21.918;2024-01-15T17:07:47;90.0;;;78.0;;
22673;SDS011;11504;43.334;21.918;2024-01-15T17:12:24;74.0;;;64.0;;
22673;SDS011;11504;43.334;21.918;2024-01-15T17:17:00;74.0;;;64.0;;
22673;SDS011;11504;43.334;21.918;2024-01-15T17:21:36;58.0;;;51.0;;
22673;SDS011;11504;43.334;21.918;2024-01-15T17:26:13;58.0;;;51.0;;
22673;SDS011;11504;43.334;21.918;2024-01-15T17:30:49;58.0;;;51.0;;
22673;SDS011;11504;43.334;21.918;2024-01-15T17:35:27;76.0;;;68.0;;
22673;SDS011;11504;43.334;21.918;2024-01-15T17:40:03;76.0;;;68.0;;
22673;SDS011;11504;43.334;21.918;2024-01-15T17:44:45;94.0;;;85.0;;
22673;SDS011;11504;43.334;21.918;2024-01-15T17:49:22;94.0;;;85.0;;
22673;SDS011;11504;43.334;21.918;2024-01-15T17:53:58;102.0;;;92.0;;
22673;SDS011;11504;43.334;21.918;2024-01-15T17:58:36;102.0;;;92.0;;
22673;SDS011;11504;43.334;21.918;2024-01-15T18:03:12;109.0;;;98.0;;
22673;SDS011;11504;43.334;21.918;2024-01-15T18:07:48;109.0;;;98.0;;
22673;SDS011;11504;43.334;21.918;2024-01-15T18:12:25;162.0;;;148.0;;
22673;SDS011;11504;43.334;21.918;2024-01-15T18:17:01;162.0;;;148.0;;
22673;SDS011;11504;43.334;21.918;2024-01-15T18:21:38;215.0;;;197.0;;
22673;SDS011;11504;43.334;21.918;2024-01-15T18:26:15;215.0;;;197.0;;
22673;SDS011;11504;43.334;21.918;2024-01-15T18:30:51;215.0;;;197.0;;
22673;SDS011;11504;43.334;21.918;2024-01-15T18:35:27;134.0;;;122.0;;
22673;SDS011;11504;43.334;21.918;2024-01-15T18:40:04;134.0;;;122.0;;
22673;SDS011;11504;43.334;21.918;2024-01-15T18:44:44;52.0;;;48.0;;
22673;SDS011;11504;43.334;21.918;2024-01-15T18:49:20;52.0;;;48.0;;
22673;SDS011;11504;43.334;21.918;2024-01-15T18:53:57;36.0;;;33.0;;
22673;SDS011;11504;43.334;21.918;2024-01-15T18:58:33;36.0;;;33.0;;
22673;SDS011;11504;43.334;21.918;2024-01-15T19:03:09;21.0;;;18.0;;
22673;SDS011;11504;43.334;21.918;2024-01-15T19:07:46;21.0;;;18.0;;
22673;SDS011;11504;43.334;21.918;2024-01-15T19:12:22;23.0;;;20.0;;
22673;SDS011;11504;43.334;21.918;2024-01-15T19:17:01;23.0;;;20.0;;
22673;SDS011;11504;43.334;21.918;2024-01-15T19:21:38;25.0;;;23.0;;
22673;SDS011;11504;43.334;21.918;2024-01-15T19:26:16;25.0;;;23.0;;
22673;SDS011;11504;43.334;21.918;2024-01-15T19:30:54;25.0;;;23.0;;
22673;SDS011;11504;43.334;21.918;2024-01-15T19:35:31;34.0;;;30.0;;
22673;SDS011;11504;43.334;21.918;2024-01-15T19:40:07;34.0;;;30.0;;
22673;SDS011;11504;43.334;21.918;2024-01-15T19:44:46;43.0;;;37.0;;
22673;SDS011;11504;43.334;21.918;2024-01-15T19:49:22;43.0;;;37.0;;
22673;SDS011;11504;43.334;21.918;2024-01-15T19:53:59;70.0;;;60.0;;
22673;SDS011;11504;43.334;21.918;2024-01-15T19:58:36;70.0;;;60.0;;
22673;SDS011;11504;43.334;21.918;2024-01-15T20:03:12;96.0;;;82.0;;
22673;SDS011;11504;43.334;21.918;2024-01-15T20:07:49;96.0;;;82.0;;
22673;SDS011;11504;43.334;21.918;2024-01-15T20:12:25;138.0;;;118.0;;
22673;SDS011;11504;43.334;21.918;2024-01-15T20:17:02;138.0;;;118.0;;
22673;SDS011;11504;43.334;21.918;2024-01-15T20:21:39;181.0;;;155.0;;
22673;SDS011;11504;43.334;21.918;2024-01-15T20:26:15;181.0;;;155.0;;
22673;SDS011;11504;43.334;21.918;2024-01-15T20:30:52;181.0;;;155.0;;
22673;SDS011;11504;43.334;21.918;2024-01-15T20:35:28;160.0;;;142.0;;
22673;SDS011;11504;43.334;21.918;2024-01-15T20:40:05;160.0;;;142.0;;
22673;SDS011;11504;43.334;21.918;2024-01-15T20:44:45;138.0;;;128.0;;
22673;SDS011;11504;43.334;21.918;2024-01-15T20:49:22;138.0;;;128.0;;
22673;SDS011;11504;43.334;21.918;2024-01-15T20:53:58;96.0;;;90.0;;
22673;SDS011;11504;43.334;21.918;2024-01-15T20:58:34;96.0;;;90.0;;
22673;SDS011;11504;43.334;21.918;2024-01-15T21:03:10;55.0;;;51.0;;
22673;SDS011;11504;43.334;21.918;2024-01-15T21:07:48;55.0;;;51.0;;
22673;SDS011;11504;43.334;21.918;2024-01-15T21:12:27;57.0;;;50.0;;
22673;SDS011;11504;43.334;21.918;2024-01-15T21:17:03;57.0;;;50.0;;
22673;SDS011;11504;43.334;21.918;2024-01-15T21:21:39;59.0;;;49.0;;
22673;SDS011;11504;43.334;21.918;2024-01-15T21:26:15;59.0;;;49.0;;
22673;SDS011;11504;43.334;21.918;2024-01-15T21:30:51;59.0;;;49.0;;
22673;SDS011;11504;43.334;21.918;2024-01-15T21:35:28;68.0;;;59.0;;
22673;SDS011;11504;43.334;21.918;2024-01-15T21:40:04;68.0;;;59.0;;
22673;SDS011;11504;43.334;21.918;2024-01-15T21:44:44;77.0;;;69.0;;
22673;SDS011;11504;43.334;21.918;2024-01-15T21:49:20;77.0;;;69.0;;
22673;SDS011;11504;43.334;21.918;2024-01-15T21:53:56;60.0;;;54.0;;
22673;SDS011;11504;43.334;21.918;2024-01-15T21:58:35;60.0;;;54.0;;
22673;SDS011;11504;43.334;21.918;2024-01-15T22:03:12;44.0;;;38.0;;
22673;SDS011;11504;43.334;21.918;2024-01-15T22:07:48;44.0;;;38.0;;
22673;SDS011;11504;43.334;21.918;2024-01-15T22:12:25;43.0;;;36.0;;
22673;SDS011;11504;43.334;21.918;2024-01-15T22:17:02;43.0;;;36.0;;
22673;SDS011;11504;43.334;21.918;2024-01-15T22:21:41;42.0;;;35.0;;
22673;SDS011;11504;43.334;21.918;2024-01-15T22:26:17;42.0;;;35.0;;
22673;SDS011;11504;43.334;21.918;2024-01-15T22:30:54;42.0;;;35.0;;
22673;SDS011;11504;43.334;21.918;2024-01-15T22:35:30;42.0;;;36.0;;
22673;SDS011;11504;43.334;21.918;2024-01-15T22:40:07;42.0;;;36.0;;
22673;SDS011;11504;43.334;21.918;2024-01-15T22:44:45;43.0;;;37.0;;
22673;SDS011;11504;43.334;21.918;2024-01-15T22:49:22;43.0;;;37.0;;
22673;SDS011;11504;43.334;21.918;2024-01-15T22:53:58;38.0;;;32.0;;
22673;SDS011;11504;43.334;21.918;2024-01-15T22:58:35;38.0;;;32.0;;
22673;SDS011;11504;43.334;21.918;2024-01-15T23:03:11;32.0;;;26.0;;
22673;SDS011;11504;43.334;21.918;2024-01-15T23:07:48;32.0;;;26.0;;
22673;SDS011;11504;43.334;21.918;2024-01-15T23:12:25;35.0;;;30.0;;
22673;SDS011;11504;43.334;21.918;2024-01-15T23:17:01;35.0;;;30.0;;
22673;SDS011;11504;43.334;21.918;2024-01-15T23:21:40;38.0;;;35.0;;
22673;SDS011;11504;43.334;21.918;2024-01-15T23:26:18;38.0;;;35.0;;
22673;SDS011;11504;43.334;21.918;2024-01-15T23:30:55;38.0;;;35.0;;
22673;SDS011;11504;43.334;21.918;2024-01-15T23:35:32;40.0;;;35.0;;
22673;SDS011;11504;43.334;21.918;2024-01-15T23:40:08;40.0;;;35.0;;
22673;SDS011;11504;43.334;21.918;2024-01-15T23:44:46;42.0;;;35.0;;
22673;SDS011;11504;43.334;21.918;2024-01-15T23:49:23;42.0;;;35.0;;
22673;SDS011;11504;43.334;21.918;2024-01-15T23:53:59;35.0;;;30.0;;
22673;SDS011;11504;43.334;21.918;2024-01-15T23:58:35;35.0;;;30.0;;
